Time;durP1;ratioP1;P1;durP2;ratioP2;P2;SDS_P1;SDS_P2;PMS_P1;PMS_P2;Temp;Humidity;BMP_temperature;BMP_pressure;BME280_temperature;BME280_humidity;BME280_pressure;Samples;Min_cycle;Max_cycle;Signal;HPM_P1;HPM_P2
2021/12/02 00:03:15;;;;;;;5.10;1.10;;;5.80;99.90;;;;;;6705739;88;20242;-79
2021/12/02 00:13:20;;;;;;;3.85;0.93;;;5.80;99.90;;;;;;6708995;88;20267;-78
2021/12/02 00:23:44;;;;;;;4.95;1.08;;;5.70;99.90;;;;;;6705423;88;20241;-77
2021/12/02 00:33:53;;;;;;;4.37;0.95;;;5.60;99.90;;;;;;6688836;88;20315;-78
2021/12/02 00:43:56;;;;;;;3.22;1.50;;;5.60;99.90;;;;;;6703380;88;20759;-77
2021/12/02 00:54:02;;;;;;;3.03;1.20;;;5.50;99.90;;;;;;6705594;88;20306;-78
2021/12/02 01:04:11;;;;;;;5.67;1.80;;;5.50;99.90;;;;;;6706732;88;20699;-77
2021/12/02 01:14:12;;;;;;;4.55;1.30;;;5.50;99.90;;;;;;6706907;88;20199;-78
2021/12/02 01:24:15;;;;;;;5.18;1.45;;;5.50;99.90;;;;;;6705544;88;20325;-78
2021/12/02 01:34:20;;;;;;;4.10;1.87;;;5.50;99.90;;;;;;6720245;88;20644;-77
2021/12/02 01:44:23;;;;;;;2.80;1.85;;;5.40;99.90;;;;;;6700290;88;20178;-77
2021/12/02 01:54:25;;;;;;;4.85;1.60;;;5.30;99.90;;;;;;6705802;88;20211;-78
2021/12/02 02:04:26;;;;;;;9.05;1.98;;;5.40;99.90;;;;;;6714793;88;20228;-77
2021/12/02 02:14:28;;;;;;;5.70;2.10;;;5.40;99.90;;;;;;6724017;88;20234;-77
2021/12/02 02:24:29;;;;;;;5.05;1.80;;;5.40;99.90;;;;;;6706796;88;20619;-77
2021/12/02 02:34:30;;;;;;;8.52;2.20;;;5.30;99.90;;;;;;6706683;88;20218;-78
2021/12/02 02:44:32;;;;;;;7.97;2.40;;;5.30;99.90;;;;;;6706701;88;20182;-77
2021/12/02 02:54:33;;;;;;;7.95;2.33;;;5.30;99.90;;;;;;6719324;88;20194;-77
2021/12/02 03:04:48;;;;;;;4.30;1.58;;;5.30;99.90;;;;;;6716464;88;20245;-78
2021/12/02 03:25:13;;;;;;;3.65;1.70;;;5.10;99.90;;;;;;6723620;88;20177;-75
2021/12/02 03:35:14;;;;;;;6.20;1.92;;;5.00;99.90;;;;;;6737762;88;20646;-74
2021/12/02 03:45:15;;;;;;;4.87;1.17;;;4.80;99.90;;;;;;6736055;88;20243;-74
2021/12/02 03:55:16;;;;;;;7.20;1.37;;;4.70;99.90;;;;;;6734497;88;20604;-75
2021/12/02 04:05:17;;;;;;;6.47;1.20;;;4.50;99.90;;;;;;6735420;88;20223;-77
2021/12/02 04:15:27;;;;;;;5.53;1.00;;;4.50;99.90;;;;;;6731330;88;20222;-75
2021/12/02 04:25:28;;;;;;;5.35;1.20;;;4.50;99.90;;;;;;6733557;88;20206;-75
2021/12/02 04:35:29;;;;;;;4.50;1.20;;;4.50;99.90;;;;;;6734482;88;20193;-74
2021/12/02 04:45:29;;;;;;;4.87;1.40;;;4.60;99.90;;;;;;6729721;88;20929;-75
2021/12/02 04:55:30;;;;;;;4.60;1.20;;;4.50;99.90;;;;;;6730756;88;20289;-75
2021/12/02 05:05:32;;;;;;;5.80;1.42;;;4.50;99.90;;;;;;6738372;88;20765;-75
2021/12/02 05:15:32;;;;;;;6.12;1.90;;;4.50;99.90;;;;;;6733817;88;20188;-75
2021/12/02 05:25:33;;;;;;;8.13;1.80;;;4.50;99.90;;;;;;6736206;88;20926;-75
2021/12/02 05:35:33;;;;;;;9.75;2.10;;;4.50;99.90;;;;;;6737514;88;20276;-75
2021/12/02 05:45:34;;;;;;;3.03;1.60;;;4.40;99.90;;;;;;6736649;88;20206;-75
2021/12/02 05:55:34;;;;;;;7.35;2.47;;;4.10;99.90;;;;;;6736396;88;20192;-74
2021/12/02 06:05:35;;;;;;;5.93;3.03;;;4.10;99.90;;;;;;6729268;88;20961;-75
2021/12/02 06:15:36;;;;;;;10.48;2.80;;;4.20;99.90;;;;;;6736549;88;20242;-75
2021/12/02 06:25:45;;;;;;;9.63;2.97;;;4.20;99.90;;;;;;6742106;88;20686;-75
2021/12/02 06:35:46;;;;;;;8.93;3.20;;;4.20;99.90;;;;;;6728853;88;20642;-76
2021/12/02 06:45:46;;;;;;;10.18;3.62;;;4.20;99.90;;;;;;6735889;88;20173;-75
2021/12/02 06:55:47;;;;;;;9.32;3.78;;;4.20;99.90;;;;;;6728277;88;20192;-76
2021/12/02 07:05:47;;;;;;;11.98;4.37;;;4.20;99.90;;;;;;6726824;88;20247;-76
2021/12/02 07:15:52;;;;;;;13.20;4.30;;;4.10;99.90;;;;;;6728472;88;20308;-76
2021/12/02 07:25:52;;;;;;;8.23;3.80;;;4.10;99.90;;;;;;6729873;88;20240;-76
2021/12/02 07:35:53;;;;;;;6.45;3.47;;;4.00;99.90;;;;;;6727607;88;20181;-76
2021/12/02 07:45:57;;;;;;;10.07;3.55;;;4.00;99.90;;;;;;6732872;88;20342;-76
2021/12/02 07:56:03;;;;;;;8.20;3.10;;;4.00;99.90;;;;;;6723286;88;20775;-75
2021/12/02 08:06:04;;;;;;;7.00;2.53;;;4.00;99.90;;;;;;6718522;88;20721;-75
2021/12/02 08:16:06;;;;;;;2.62;1.10;;;4.00;99.90;;;;;;6733682;88;20697;-75
2021/12/02 08:26:07;;;;;;;3.37;0.40;;;3.60;99.90;;;;;;6730484;88;20229;-75
2021/12/02 08:36:08;;;;;;;2.33;0.80;;;3.30;99.90;;;;;;6730468;88;20232;-75
2021/12/02 08:46:08;;;;;;;4.82;1.60;;;3.40;99.90;;;;;;6731077;88;20521;-75
2021/12/02 08:56:09;;;;;;;6.32;2.30;;;3.50;99.90;;;;;;6726177;88;20237;-75
2021/12/02 09:06:11;;;;;;;5.07;2.25;;;3.70;99.90;;;;;;6735123;88;20272;-75
2021/12/02 09:16:13;;;;;;;8.75;2.45;;;3.50;99.90;;;;;;6730708;88;20222;-75
2021/12/02 09:26:14;;;;;;;4.15;2.20;;;3.60;99.90;;;;;;6734242;88;20184;-74
2021/12/02 09:36:16;;;;;;;4.18;1.90;;;3.50;99.90;;;;;;6730332;88;20214;-74
2021/12/02 09:46:16;;;;;;;3.70;1.50;;;4.00;99.90;;;;;;6734535;88;20748;-74
2021/12/02 09:56:25;;;;;;;3.75;1.70;;;4.30;99.90;;;;;;6739964;88;20302;-75
2021/12/02 10:06:31;;;;;;;3.00;1.52;;;4.30;99.90;;;;;;6739639;88;20570;-75
2021/12/02 10:16:32;;;;;;;4.77;1.70;;;4.50;99.90;;;;;;6731268;87;20671;-76
2021/12/02 10:26:38;;;;;;;4.90;1.80;;;4.80;99.90;;;;;;6730928;88;20336;-75
2021/12/02 10:36:44;;;;;;;4.67;1.80;;;4.90;99.90;;;;;;6731447;88;20244;-77
2021/12/02 10:46:52;;;;;;;2.42;1.37;;;4.60;99.90;;;;;;6731386;88;21029;-75
2021/12/02 10:56:59;;;;;;;3.92;2.03;;;4.60;99.90;;;;;;6728147;88;20239;-76
2021/12/02 11:07:01;;;;;;;2.60;1.40;;;4.70;99.90;;;;;;6731062;88;20181;-76
2021/12/02 11:17:16;;;;;;;3.15;1.40;;;5.50;99.90;;;;;;6728648;87;20189;-77
2021/12/02 11:27:23;;;;;;;3.22;1.00;;;5.30;99.90;;;;;;6730872;88;20277;-76
2021/12/02 11:37:24;;;;;;;3.90;0.70;;;4.70;99.90;;;;;;6731717;88;20204;-75
2021/12/02 11:47:25;;;;;;;3.62;0.95;;;4.80;99.90;;;;;;6731359;88;20475;-75
2021/12/02 11:57:27;;;;;;;1.77;0.60;;;5.60;99.90;;;;;;6731207;88;20193;-75
2021/12/02 12:07:47;;;;;;;3.97;0.85;;;5.60;99.90;;;;;;6731747;88;20206;-75
2021/12/02 12:17:48;;;;;;;4.72;1.20;;;5.90;99.90;;;;;;6733922;88;20316;-75
2021/12/02 12:27:57;;;;;;;2.70;1.50;;;5.30;99.90;;;;;;6733118;88;20687;-76
2021/12/02 12:38:02;;;;;;;4.60;1.50;;;4.90;99.90;;;;;;6731413;88;20282;-75
2021/12/02 12:48:05;;;;;;;8.32;1.75;;;4.90;99.90;;;;;;6728422;88;20177;-76
2021/12/02 12:58:15;;;;;;;7.25;2.40;;;5.10;99.90;;;;;;6730684;88;20197;-75
2021/12/02 13:08:19;;;;;;;5.35;1.55;;;5.90;99.90;;;;;;6722383;88;20665;-75
2021/12/02 13:18:31;;;;;;;7.40;1.70;;;5.20;99.90;;;;;;6716894;88;20235;-76
2021/12/02 13:28:33;;;;;;;7.18;1.80;;;4.90;99.90;;;;;;6730568;88;20209;-74
2021/12/02 13:38:33;;;;;;;3.65;1.77;;;4.60;99.90;;;;;;6732668;88;20314;-75
2021/12/02 13:48:34;;;;;;;3.93;1.60;;;4.30;99.90;;;;;;6733192;88;20204;-75
2021/12/02 13:58:34;;;;;;;8.52;1.90;;;4.10;99.90;;;;;;6732434;88;20533;-75
2021/12/02 14:08:37;;;;;;;3.33;1.80;;;4.00;99.90;;;;;;6731350;88;20679;-75
2021/12/02 14:18:38;;;;;;;4.82;1.60;;;4.00;99.90;;;;;;6733041;88;21087;-75
2021/12/02 14:28:41;;;;;;;4.82;1.80;;;4.00;99.90;;;;;;6726497;88;20327;-76
2021/12/02 14:38:45;;;;;;;5.95;1.70;;;3.90;99.90;;;;;;6728042;88;20643;-76
2021/12/02 14:48:57;;;;;;;8.32;2.08;;;3.70;99.90;;;;;;6733563;88;20196;-75
2021/12/02 14:59:20;;;;;;;4.97;1.95;;;3.70;99.90;;;;;;6731609;88;20221;-76
2021/12/02 15:09:35;;;;;;;5.15;2.28;;;3.80;99.90;;;;;;6730184;88;20189;-76
2021/12/02 15:19:45;;;;;;;6.00;2.20;;;3.60;99.90;;;;;;6731370;88;20185;-76
2021/12/02 15:29:51;;;;;;;6.47;2.10;;;3.70;99.90;;;;;;6729432;88;20205;-75
2021/12/02 15:39:52;;;;;;;9.10;2.67;;;3.70;99.90;;;;;;6727401;88;20703;-76
2021/12/02 15:50:04;;;;;;;6.82;3.53;;;3.60;99.90;;;;;;6729048;88;20223;-75
2021/12/02 16:00:14;;;;;;;8.32;3.62;;;3.50;99.90;;;;;;6718419;88;20372;-76
2021/12/02 16:20:21;;;;;;;7.32;3.47;;;3.40;99.90;;;;;;6731047;88;20209;-76
2021/12/02 16:30:23;;;;;;;9.77;3.83;;;3.50;99.90;;;;;;6728347;88;20193;-76
2021/12/02 16:40:28;;;;;;;9.40;4.03;;;3.40;99.90;;;;;;6728902;88;20210;-76
2021/12/02 16:50:29;;;;;;;10.25;3.97;;;3.40;99.90;;;;;;6732523;88;20222;-76
2021/12/02 17:00:41;;;;;;;6.95;4.20;;;3.40;99.90;;;;;;6732020;88;20673;-76
2021/12/02 17:10:43;;;;;;;8.52;3.45;;;3.20;99.90;;;;;;6731684;88;20701;-75
2021/12/02 17:20:43;;;;;;;5.28;2.47;;;3.00;99.90;;;;;;6732840;88;20184;-76
2021/12/02 17:30:44;;;;;;;6.30;2.08;;;3.20;99.90;;;;;;6727857;88;20231;-77
2021/12/02 17:40:50;;;;;;;4.62;2.20;;;3.40;99.90;;;;;;6733197;88;20193;-76
2021/12/02 17:50:53;;;;;;;4.13;2.50;;;3.30;99.90;;;;;;6727588;88;20208;-75
2021/12/02 18:00:54;;;;;;;6.93;2.83;;;3.20;99.90;;;;;;6728393;88;20323;-75
2021/12/02 18:10:54;;;;;;;9.10;3.80;;;3.10;99.90;;;;;;6732627;88;20272;-76
2021/12/02 18:20:56;;;;;;;6.00;3.35;;;3.10;99.90;;;;;;6731362;88;20733;-77
2021/12/02 18:30:57;;;;;;;7.95;3.87;;;3.20;99.90;;;;;;6740796;88;20684;-78
2021/12/02 18:40:57;;;;;;;6.65;3.87;;;3.10;99.90;;;;;;6740483;88;20363;-79
2021/12/02 18:51:00;;;;;;;6.72;4.25;;;3.10;99.90;;;;;;6743005;88;20325;-78
2021/12/02 19:01:02;;;;;;;11.27;4.60;;;3.20;99.90;;;;;;6742410;88;20318;-78
2021/12/02 19:31:46;;;;;;;12.13;6.30;;;3.20;99.90;;;;;;6740085;88;20627;-80
2021/12/02 19:41:47;;;;;;;10.30;5.68;;;3.20;99.90;;;;;;6739855;88;20202;-77
2021/12/02 19:51:49;;;;;;;11.52;6.72;;;3.20;99.90;;;;;;6740026;88;20208;-78
2021/12/02 20:01:51;;;;;;;10.95;6.82;;;3.20;99.90;;;;;;6736209;88;20233;-77
2021/12/02 20:11:52;;;;;;;11.88;7.30;;;3.30;99.90;;;;;;6740716;88;20164;-78
2021/12/02 20:21:53;;;;;;;12.37;7.82;;;3.10;99.90;;;;;;6740406;88;20213;-78
2021/12/02 20:31:54;;;;;;;15.63;8.52;;;2.90;99.90;;;;;;6725738;88;20264;-76
2021/12/02 20:41:54;;;;;;;16.85;9.20;;;2.60;99.90;;;;;;6721223;88;20205;-77
2021/12/02 20:51:55;;;;;;;14.95;9.65;;;2.40;99.90;;;;;;6740524;88;20269;-78
2021/12/02 21:01:56;;;;;;;15.20;9.13;;;2.20;99.90;;;;;;6737620;88;20675;-76
2021/12/02 21:11:57;;;;;;;23.77;14.00;;;2.00;99.90;;;;;;6740913;88;20249;-78
2021/12/02 21:22:01;;;;;;;19.52;11.40;;;1.80;99.90;;;;;;6733453;88;21015;-77
2021/12/02 21:32:03;;;;;;;17.02;9.52;;;1.70;99.90;;;;;;6737788;88;20181;-78
2021/12/02 21:42:04;;;;;;;18.70;10.82;;;1.70;99.90;;;;;;6738507;88;20306;-77
2021/12/02 21:52:05;;;;;;;20.55;10.52;;;1.50;99.90;;;;;;6718351;88;20233;-77
2021/12/02 22:02:07;;;;;;;21.52;11.65;;;1.40;99.90;;;;;;6727523;88;20703;-76
2021/12/02 22:12:08;;;;;;;26.12;12.32;;;1.40;99.90;;;;;;6723729;88;20255;-77
2021/12/02 22:22:09;;;;;;;29.00;13.20;;;1.30;99.90;;;;;;6742922;88;20224;-79
2021/12/02 22:32:09;;;;;;;29.77;14.32;;;1.10;99.90;;;;;;6710953;77;20195;-76
2021/12/02 22:42:10;;;;;;;29.05;13.80;;;1.00;99.90;;;;;;6677505;88;20790;-76
2021/12/02 22:52:11;;;;;;;26.23;12.57;;;0.90;99.90;;;;;;6690373;88;20285;-76
2021/12/02 23:02:12;;;;;;;25.98;13.10;;;0.90;99.90;;;;;;6691779;88;20195;-77
2021/12/02 23:12:13;;;;;;;26.60;12.68;;;0.80;99.90;;;;;;6689885;88;20208;-76
2021/12/02 23:22:13;;;;;;;26.87;12.05;;;0.70;99.90;;;;;;6686304;88;20202;-77
2021/12/02 23:32:14;;;;;;;24.58;11.65;;;0.70;99.90;;;;;;6687752;88;20209;-76
2021/12/02 23:42:15;;;;;;;22.40;10.82;;;0.80;99.90;;;;;;6688670;88;20208;-77
2021/12/02 23:52:15;;;;;;;25.77;11.07;;;0.60;99.90;;;;;;6691196;88;20646;-77
